createdAt,value
2024-05-09T00:00:39.058Z,713.00
2024-05-09T00:01:33.764Z,714.00
2024-05-09T00:02:32.702Z,715.00
2024-05-09T00:03:32.768Z,719.00
2024-05-09T00:04:32.759Z,729.00
2024-05-09T00:05:32.840Z,745.00
2024-05-09T00:06:32.714Z,738.00
2024-05-09T00:07:32.748Z,750.00
2024-05-09T00:08:32.744Z,742.00
2024-05-09T00:09:32.720Z,743.00
2024-05-09T00:10:37.194Z,745.00
2024-05-09T00:11:33.833Z,746.00
2024-05-09T00:12:32.775Z,748.00
2024-05-09T00:13:32.767Z,755.00
2024-05-09T00:14:32.853Z,761.00
2024-05-09T00:15:32.768Z,762.00
2024-05-09T00:16:32.770Z,765.00
2024-05-09T00:17:32.961Z,766.00
2024-05-09T00:18:32.915Z,763.00
2024-05-09T00:19:32.888Z,766.00
2024-05-09T00:20:38.042Z,761.00
2024-05-09T00:21:33.790Z,762.00
2024-05-09T00:22:32.807Z,760.00
2024-05-09T00:23:33.019Z,754.00
2024-05-09T00:24:32.789Z,751.00
2024-05-09T00:25:32.792Z,752.00
2024-05-09T00:26:32.875Z,740.00
2024-05-09T00:27:32.801Z,739.00
2024-05-09T00:28:32.790Z,729.00
2024-05-09T00:29:32.955Z,721.00
2024-05-09T00:30:35.488Z,712.00
2024-05-09T00:31:32.791Z,713.00
2024-05-09T00:32:33.063Z,713.00
2024-05-09T00:33:32.907Z,708.00
2024-05-09T00:34:32.822Z,701.00
2024-05-09T00:35:32.953Z,694.00
2024-05-09T00:36:32.833Z,697.00
2024-05-09T00:37:32.820Z,697.00
2024-05-09T00:38:32.905Z,696.00
2024-05-09T00:39:32.823Z,692.00
2024-05-09T00:40:38.926Z,701.00
2024-05-09T00:41:33.927Z,702.00
2024-05-09T00:42:32.830Z,704.00
2024-05-09T00:43:32.905Z,707.00
2024-05-09T00:44:32.857Z,713.00
2024-05-09T00:45:32.835Z,713.00
2024-05-09T00:46:32.825Z,719.00
2024-05-09T00:47:32.999Z,717.00
2024-05-09T00:48:32.981Z,715.00
2024-05-09T00:49:32.951Z,722.00
2024-05-09T00:50:36.492Z,717.00
2024-05-09T00:51:32.836Z,717.00
2024-05-09T00:52:32.830Z,719.00
2024-05-09T00:53:32.908Z,719.00
2024-05-09T00:54:32.830Z,722.00
2024-05-09T00:55:32.850Z,721.00
2024-05-09T00:56:32.859Z,720.00
2024-05-09T00:57:32.847Z,723.00
2024-05-09T00:58:32.858Z,729.00
2024-05-09T00:59:32.868Z,728.00
2024-05-09T01:00:38.693Z,740.00
2024-05-09T01:01:33.973Z,741.00
2024-05-09T01:02:32.961Z,744.00
2024-05-09T01:03:33.067Z,744.00
2024-05-09T01:04:32.860Z,744.00
2024-05-09T01:05:32.937Z,744.00
2024-05-09T01:06:32.850Z,736.00
2024-05-09T01:07:32.848Z,732.00
2024-05-09T01:08:32.911Z,721.00
2024-05-09T01:09:32.833Z,723.00
2024-05-09T01:10:35.111Z,713.00
2024-05-09T01:11:32.968Z,714.00
2024-05-09T01:12:32.913Z,716.00
2024-05-09T01:13:32.849Z,696.00
2024-05-09T01:14:32.866Z,697.00
2024-05-09T01:15:32.867Z,688.00
2024-05-09T01:16:32.842Z,685.00
2024-05-09T01:17:32.924Z,670.00
2024-05-09T01:18:32.914Z,663.00
2024-05-09T01:19:33.021Z,660.00
2024-05-09T01:20:40.916Z,656.00
2024-05-09T01:21:33.870Z,657.00
2024-05-09T01:22:32.847Z,658.00
2024-05-09T01:23:32.928Z,659.00
2024-05-09T01:24:32.848Z,661.00
2024-05-09T01:25:32.857Z,662.00
2024-05-09T01:26:32.925Z,662.00
2024-05-09T01:27:32.863Z,663.00
2024-05-09T01:28:32.892Z,665.00
2024-05-09T01:29:32.861Z,664.00
2024-05-09T01:30:35.804Z,669.00
2024-05-09T01:31:32.899Z,670.00
2024-05-09T01:32:32.974Z,674.00
2024-05-09T01:33:33.398Z,683.00
2024-05-09T01:34:32.875Z,697.00
2024-05-09T01:35:32.899Z,721.00
2024-05-09T01:36:32.875Z,736.00
2024-05-09T01:37:32.910Z,736.00
2024-05-09T01:38:33.076Z,747.00
2024-05-09T01:39:32.881Z,749.00
2024-05-09T01:40:37.560Z,742.00
2024-05-09T01:41:33.982Z,743.00
2024-05-09T01:42:32.878Z,746.00
2024-05-09T01:43:32.881Z,750.00
2024-05-09T01:44:32.941Z,756.00
2024-05-09T01:45:33.052Z,764.00
2024-05-09T01:46:32.932Z,770.00
2024-05-09T01:47:33.122Z,761.00
2024-05-09T01:48:32.943Z,760.00
2024-05-09T01:49:32.931Z,753.00
2024-05-09T01:50:38.981Z,752.00
2024-05-09T01:51:33.916Z,752.00
2024-05-09T01:52:32.930Z,753.00
2024-05-09T01:53:33.014Z,749.00
2024-05-09T01:54:32.935Z,753.00
2024-05-09T01:55:32.915Z,740.00
2024-05-09T01:56:33.079Z,734.00
2024-05-09T01:57:32.924Z,723.00
2024-05-09T01:58:32.970Z,728.00
2024-05-09T01:59:33.094Z,721.00
2024-05-09T02:00:38.996Z,700.00
2024-05-09T02:01:55.483Z,701.00
2024-05-09T02:02:34.019Z,701.00
2024-05-09T02:03:33.045Z,705.00
2024-05-09T02:04:32.967Z,712.00
2024-05-09T02:05:32.986Z,716.00
2024-05-09T02:06:32.952Z,728.00
2024-05-09T02:07:33.239Z,733.00
2024-05-09T02:08:33.122Z,740.00
2024-05-09T02:09:32.925Z,728.00
2024-05-09T02:10:33.561Z,725.00
2024-05-09T02:11:32.996Z,714.00
2024-05-09T02:12:33.101Z,692.00
2024-05-09T02:13:32.978Z,686.00
2024-05-09T02:14:32.963Z,700.00
2024-05-09T02:15:32.937Z,695.00
2024-05-09T02:16:32.954Z,692.00
2024-05-09T02:17:33.058Z,700.00
2024-05-09T02:18:33.055Z,702.00
2024-05-09T02:19:33.257Z,705.00
2024-05-09T02:20:36.367Z,699.00
2024-05-09T02:21:32.984Z,700.00
2024-05-09T02:22:32.993Z,700.00
2024-05-09T02:23:33.061Z,702.00
2024-05-09T02:24:32.979Z,702.00
2024-05-09T02:25:33.144Z,713.00
2024-05-09T02:26:32.991Z,709.00
2024-05-09T02:27:32.964Z,708.00
2024-05-09T02:28:32.959Z,720.00
2024-05-09T02:29:33.082Z,720.00
2024-05-09T02:30:39.103Z,716.00
2024-05-09T02:31:33.997Z,717.00
2024-05-09T02:32:33.162Z,718.00
2024-05-09T02:33:33.394Z,718.00
2024-05-09T02:34:33.076Z,706.00
2024-05-09T02:35:33.071Z,734.00
2024-05-09T02:36:32.994Z,744.00
2024-05-09T02:37:32.992Z,736.00
2024-05-09T02:38:33.098Z,732.00
2024-05-09T02:39:32.999Z,731.00
2024-05-09T02:40:37.194Z,737.00
2024-05-09T02:41:34.013Z,738.00
2024-05-09T02:42:33.005Z,739.00
2024-05-09T02:43:33.018Z,744.00
2024-05-09T02:44:33.029Z,738.00
2024-05-09T02:45:33.188Z,746.00
2024-05-09T02:46:33.028Z,751.00
2024-05-09T02:47:33.177Z,760.00
2024-05-09T02:48:33.193Z,747.00
2024-05-09T02:49:33.090Z,744.00
2024-05-09T02:50:38.068Z,736.00
2024-05-09T02:51:34.042Z,737.00
2024-05-09T02:52:33.031Z,737.00
2024-05-09T02:53:33.073Z,733.00
2024-05-09T02:54:33.028Z,705.00
2024-05-09T02:55:33.235Z,701.00
2024-05-09T02:56:33.096Z,705.00
2024-05-09T02:57:33.037Z,713.00
2024-05-09T02:58:33.015Z,717.00
2024-05-09T02:59:33.061Z,717.00
2024-05-09T03:00:38.966Z,726.00
2024-05-09T03:01:34.129Z,726.00
2024-05-09T03:02:33.205Z,728.00
2024-05-09T03:03:33.288Z,734.00
2024-05-09T03:04:33.160Z,748.00
2024-05-09T03:05:33.266Z,753.00
2024-05-09T03:06:33.051Z,761.00
2024-05-09T03:07:33.041Z,754.00
2024-05-09T03:08:33.143Z,763.00
2024-05-09T03:09:33.058Z,776.00
2024-05-09T03:10:36.380Z,785.00
2024-05-09T03:11:34.162Z,785.00
2024-05-09T03:12:34.065Z,788.00
2024-05-09T03:13:33.052Z,791.00
2024-05-09T03:14:33.106Z,804.00
2024-05-09T03:15:33.292Z,820.00
2024-05-09T03:16:33.085Z,825.00
2024-05-09T03:17:33.323Z,845.00
2024-05-09T03:18:33.159Z,850.00
2024-05-09T03:19:33.202Z,853.00
2024-05-09T03:20:35.415Z,859.00
2024-05-09T03:21:33.107Z,864.00
2024-05-09T03:22:33.092Z,861.00
2024-05-09T03:23:33.117Z,857.00
2024-05-09T03:24:33.104Z,855.00
2024-05-09T03:25:33.116Z,850.00
2024-05-09T03:26:33.116Z,843.00
2024-05-09T03:27:33.106Z,831.00
2024-05-09T03:28:33.116Z,822.00
2024-05-09T03:29:33.167Z,818.00
2024-05-09T03:30:40.511Z,827.00
2024-05-09T03:31:34.107Z,828.00
2024-05-09T03:32:33.256Z,831.00
2024-05-09T03:33:33.332Z,832.00
2024-05-09T03:34:33.127Z,835.00
2024-05-09T03:35:33.155Z,850.00
2024-05-09T03:36:33.108Z,842.00
2024-05-09T03:37:33.162Z,830.00
2024-05-09T03:38:33.228Z,840.00
2024-05-09T03:39:33.127Z,829.00
2024-05-09T03:40:33.130Z,824.00
2024-05-09T03:41:33.299Z,831.00
2024-05-09T03:42:33.140Z,828.00
2024-05-09T03:43:33.120Z,830.00
2024-05-09T03:44:33.233Z,826.00
2024-05-09T03:45:33.210Z,820.00
2024-05-09T03:46:33.225Z,826.00
2024-05-09T03:47:33.411Z,835.00
2024-05-09T03:48:33.350Z,819.00
2024-05-09T03:49:33.423Z,828.00
2024-05-09T03:50:35.642Z,833.00
2024-05-09T03:51:33.312Z,817.00
2024-05-09T03:52:33.349Z,826.00
2024-05-09T03:53:33.501Z,818.00
2024-05-09T03:54:33.349Z,813.00
2024-05-09T03:55:33.346Z,808.00
2024-05-09T03:56:33.352Z,802.00
2024-05-09T03:57:33.353Z,811.00
2024-05-09T03:58:33.334Z,827.00
2024-05-09T03:59:33.395Z,838.00
2024-05-09T04:00:38.104Z,831.00
2024-05-09T04:01:34.424Z,832.00
2024-05-09T04:02:33.437Z,831.00
2024-05-09T04:03:33.525Z,813.00
2024-05-09T04:04:33.451Z,801.00
2024-05-09T04:05:33.487Z,789.00
2024-05-09T04:06:33.362Z,789.00
2024-05-09T04:07:33.375Z,792.00
2024-05-09T04:08:33.510Z,784.00
2024-05-09T04:09:33.377Z,787.00
2024-05-09T04:10:34.911Z,791.00
2024-05-09T04:11:33.481Z,780.00
2024-05-09T04:12:33.451Z,781.00
2024-05-09T04:13:33.361Z,772.00
2024-05-09T04:14:33.428Z,772.00
2024-05-09T04:15:33.439Z,761.00
2024-05-09T04:16:33.369Z,767.00
2024-05-09T04:17:33.548Z,757.00
2024-05-09T04:18:33.660Z,746.00
2024-05-09T04:19:33.658Z,743.00
2024-05-09T04:20:38.677Z,739.00
2024-05-09T04:21:34.600Z,739.00
2024-05-09T04:22:33.604Z,739.00
2024-05-09T04:23:33.806Z,740.00
2024-05-09T04:24:33.604Z,735.00
2024-05-09T04:25:33.654Z,725.00
2024-05-09T04:26:33.689Z,719.00
2024-05-09T04:27:33.619Z,705.00
2024-05-09T04:28:33.622Z,688.00
2024-05-09T04:29:33.693Z,701.00
2024-05-09T04:30:38.278Z,683.00
2024-05-09T04:31:34.626Z,684.00
2024-05-09T04:32:33.732Z,689.00
2024-05-09T04:33:33.825Z,699.00
2024-05-09T04:34:33.793Z,716.00
2024-05-09T04:35:33.685Z,732.00
2024-05-09T04:36:33.638Z,719.00
2024-05-09T04:37:33.652Z,731.00
2024-05-09T04:38:33.789Z,742.00
2024-05-09T04:39:41.327Z,600.00
2024-05-09T04:40:41.376Z,600.00
2024-05-09T04:41:41.494Z,600.00
2024-05-09T04:42:41.514Z,600.00
2024-05-09T04:43:41.569Z,600.00
2024-05-09T04:44:41.603Z,603.00
2024-05-09T04:45:41.683Z,601.00
2024-05-09T04:46:41.738Z,605.00
2024-05-09T04:47:41.967Z,600.00
2024-05-09T04:48:41.975Z,603.00
2024-05-09T04:49:41.909Z,601.00
2024-05-09T04:50:42.024Z,602.00
2024-05-09T04:51:42.005Z,601.00
2024-05-09T04:52:42.057Z,602.00
2024-05-09T04:53:42.126Z,607.00
2024-05-09T04:54:42.158Z,607.00
2024-05-09T04:55:42.221Z,610.00
2024-05-09T04:56:42.339Z,603.00
2024-05-09T04:57:42.366Z,606.00
2024-05-09T04:58:42.432Z,605.00
2024-05-09T04:59:42.437Z,605.00
2024-05-09T05:00:42.604Z,607.00
2024-05-09T05:01:42.590Z,608.00
2024-05-09T05:02:42.766Z,606.00
2024-05-09T05:03:42.911Z,610.00
2024-05-09T05:04:42.878Z,613.00
2024-05-09T05:05:43.413Z,610.00
2024-05-09T05:06:42.858Z,609.00
2024-05-09T05:07:42.899Z,612.00
2024-05-09T05:08:43.005Z,619.00
2024-05-09T05:09:42.996Z,625.00
2024-05-09T05:10:43.084Z,625.00
2024-05-09T05:11:43.170Z,628.00
2024-05-09T05:12:43.111Z,632.00
2024-05-09T05:13:43.182Z,637.00
2024-05-09T05:14:43.205Z,644.00
2024-05-09T05:15:43.252Z,647.00
2024-05-09T05:16:43.285Z,651.00
2024-05-09T05:17:43.596Z,649.00
2024-05-09T05:18:43.457Z,653.00
2024-05-09T05:19:43.603Z,653.00
2024-05-09T05:20:43.632Z,658.00
2024-05-09T05:21:43.567Z,660.00
2024-05-09T05:22:43.599Z,663.00
2024-05-09T05:23:43.659Z,672.00
2024-05-09T05:24:43.633Z,669.00
2024-05-09T05:25:43.730Z,670.00
2024-05-09T05:26:43.713Z,672.00
2024-05-09T05:27:43.703Z,679.00
2024-05-09T05:28:43.714Z,691.00
2024-05-09T05:29:43.839Z,693.00
2024-05-09T05:30:43.850Z,699.00
2024-05-09T05:31:43.932Z,705.00
2024-05-09T05:32:44.088Z,705.00
2024-05-09T05:33:44.063Z,707.00
2024-05-09T05:34:44.043Z,712.00
2024-05-09T05:35:44.112Z,718.00
2024-05-09T05:36:44.081Z,726.00
2024-05-09T05:37:44.157Z,735.00
2024-05-09T05:38:44.306Z,736.00
2024-05-09T05:39:44.172Z,739.00
2024-05-09T05:40:44.335Z,740.00
2024-05-09T05:41:44.287Z,745.00
2024-05-09T05:42:44.300Z,746.00
2024-05-09T05:43:44.449Z,742.00
2024-05-09T05:44:44.354Z,744.00
2024-05-09T05:45:44.442Z,746.00
2024-05-09T05:46:44.509Z,744.00
2024-05-09T05:47:44.780Z,732.00
2024-05-09T05:48:44.599Z,731.00
2024-05-09T05:49:44.514Z,736.00
2024-05-09T05:50:44.676Z,746.00
2024-05-09T05:51:44.625Z,755.00
2024-05-09T05:52:44.762Z,752.00
2024-05-09T05:53:44.774Z,755.00
2024-05-09T05:54:44.727Z,744.00
2024-05-09T05:55:44.836Z,747.00
2024-05-09T05:56:44.912Z,752.00
2024-05-09T05:57:44.906Z,752.00
2024-05-09T05:58:45.145Z,752.00
2024-05-09T05:59:45.061Z,730.00
2024-05-09T06:00:45.218Z,714.00
2024-05-09T06:01:45.159Z,703.00
2024-05-09T06:02:45.327Z,709.00
2024-05-09T06:03:45.304Z,700.00
2024-05-09T06:04:45.366Z,700.00
2024-05-09T06:05:45.270Z,689.00
2024-05-09T06:06:45.332Z,693.00
2024-05-09T06:07:45.403Z,677.00
2024-05-09T06:08:45.510Z,672.00
2024-05-09T06:09:47.611Z,663.00
2024-05-09T06:10:45.514Z,663.00
2024-05-09T06:11:45.603Z,657.00
2024-05-09T06:12:45.447Z,650.00
2024-05-09T06:13:45.506Z,643.00
2024-05-09T06:14:45.419Z,637.00
2024-05-09T06:15:45.431Z,629.00
2024-05-09T06:16:45.465Z,620.00
2024-05-09T06:17:45.743Z,622.00
2024-05-09T06:18:45.563Z,616.00
2024-05-09T06:19:45.587Z,612.00
2024-05-09T06:20:45.486Z,621.00
2024-05-09T06:21:45.453Z,623.00
2024-05-09T06:22:45.441Z,626.00
2024-05-09T06:23:45.494Z,626.00
2024-05-09T06:24:45.449Z,627.00
2024-05-09T06:25:45.471Z,624.00
2024-05-09T06:26:45.440Z,619.00
2024-05-09T06:27:45.530Z,619.00
2024-05-09T06:28:45.499Z,613.00
2024-05-09T06:29:45.448Z,613.00
2024-05-09T06:30:45.493Z,604.00
2024-05-09T06:31:45.530Z,602.00
2024-05-09T06:32:45.567Z,603.00
2024-05-09T06:33:45.585Z,603.00
2024-05-09T06:34:45.628Z,602.00
2024-05-09T06:35:45.542Z,602.00
2024-05-09T06:36:45.463Z,601.00
2024-05-09T06:37:45.486Z,602.00
2024-05-09T06:38:45.539Z,604.00
2024-05-09T06:39:45.471Z,603.00
2024-05-09T06:40:45.786Z,600.00
2024-05-09T06:41:45.463Z,602.00
2024-05-09T06:42:45.474Z,600.00
2024-05-09T06:43:45.540Z,600.00
2024-05-09T06:44:45.525Z,603.00
2024-05-09T06:45:45.486Z,602.00
2024-05-09T06:46:45.714Z,600.00
2024-05-09T06:47:45.568Z,600.00
2024-05-09T06:48:45.849Z,602.00
2024-05-09T06:49:45.547Z,600.00
2024-05-09T06:50:45.622Z,601.00
2024-05-09T06:51:45.484Z,600.00
2024-05-09T06:52:45.554Z,604.00
2024-05-09T06:53:45.613Z,601.00
2024-05-09T06:54:45.624Z,601.00
2024-05-09T06:55:45.729Z,601.00
2024-05-09T06:56:45.682Z,600.00
2024-05-09T06:57:45.688Z,600.00
2024-05-09T06:58:45.780Z,600.00
2024-05-09T06:59:45.774Z,609.00
2024-05-09T07:00:45.911Z,624.00
2024-05-09T07:01:45.938Z,639.00
2024-05-09T07:02:46.068Z,654.00
2024-05-09T07:03:46.085Z,666.00
2024-05-09T07:04:46.100Z,694.00
2024-05-09T07:05:47.084Z,695.00
2024-05-09T07:06:46.107Z,685.00
2024-05-09T07:07:46.264Z,682.00
2024-05-09T07:08:47.409Z,685.00
2024-05-09T07:09:46.304Z,689.00
2024-05-09T07:10:46.586Z,696.00
2024-05-09T07:11:46.518Z,699.00
2024-05-09T07:12:46.462Z,687.00
2024-05-09T07:13:46.527Z,684.00
2024-05-09T07:14:46.606Z,680.00
2024-05-09T07:15:46.542Z,675.00
2024-05-09T07:16:46.702Z,686.00
2024-05-09T07:17:46.821Z,689.00
2024-05-09T07:18:46.920Z,701.00
2024-05-09T07:19:46.856Z,713.00
2024-05-09T07:20:47.394Z,729.00
2024-05-09T07:21:46.886Z,729.00
2024-05-09T07:22:46.925Z,710.00
2024-05-09T07:23:47.551Z,683.00
2024-05-09T07:24:47.064Z,664.00
2024-05-09T07:25:47.332Z,659.00
2024-05-09T07:26:47.217Z,649.00
2024-05-09T07:27:47.236Z,643.00
2024-05-09T07:28:47.327Z,634.00
2024-05-09T07:29:47.406Z,625.00
2024-05-09T07:30:47.354Z,623.00
2024-05-09T07:31:47.409Z,627.00
2024-05-09T07:32:47.853Z,626.00
2024-05-09T07:33:47.522Z,621.00
2024-05-09T07:34:47.502Z,620.00
2024-05-09T07:35:47.590Z,619.00
2024-05-09T07:36:47.548Z,615.00
2024-05-09T07:37:47.621Z,620.00
2024-05-09T07:38:47.732Z,617.00
2024-05-09T07:39:47.688Z,619.00
2024-05-09T07:40:47.838Z,611.00
2024-05-09T07:41:47.810Z,602.00
2024-05-09T07:42:47.832Z,602.00
2024-05-09T07:43:47.891Z,600.00
2024-05-09T07:44:47.937Z,600.00
2024-05-09T07:45:53.093Z,600.00
2024-05-09T07:47:48.786Z,598.00
2024-05-09T07:49:13.626Z,593.00
2024-05-09T07:53:17.300Z,589.00
2024-05-09T07:53:34.820Z,595.00
2024-05-09T07:53:52.210Z,600.00
2024-05-09T07:54:49.276Z,598.00
2024-05-09T07:55:48.059Z,581.00
2024-05-09T07:56:48.079Z,557.00
2024-05-09T07:57:48.027Z,542.00
2024-05-09T07:58:47.975Z,529.00
2024-05-09T07:59:47.976Z,555.00
2024-05-09T08:00:48.176Z,578.00
2024-05-09T08:01:48.059Z,600.00
2024-05-09T08:02:48.048Z,600.00
2024-05-09T08:03:48.195Z,602.00
2024-05-09T08:04:48.164Z,600.00
2024-05-09T08:05:48.032Z,600.00
2024-05-09T08:06:48.068Z,600.00
2024-05-09T08:07:48.012Z,601.00
2024-05-09T08:08:47.987Z,602.00
2024-05-09T08:09:48.025Z,604.00
2024-05-09T08:10:48.066Z,606.00
2024-05-09T08:11:48.024Z,611.00
2024-05-09T08:12:48.037Z,616.00
2024-05-09T08:13:48.044Z,607.00
2024-05-09T08:14:47.995Z,602.00
2024-05-09T08:15:48.055Z,603.00
2024-05-09T08:16:48.044Z,602.00
2024-05-09T08:17:48.115Z,600.00
2024-05-09T08:18:48.094Z,602.00
2024-05-09T08:19:48.083Z,603.00
2024-05-09T08:20:48.012Z,605.00
2024-05-09T08:21:48.053Z,598.00
2024-05-09T08:22:48.037Z,606.00
2024-05-09T08:23:48.018Z,611.00
2024-05-09T08:24:48.059Z,617.00
2024-05-09T08:25:48.120Z,615.00
2024-05-09T08:26:48.146Z,613.00
2024-05-09T08:27:48.176Z,619.00
2024-05-09T08:28:48.186Z,624.00
2024-05-09T08:29:48.267Z,630.00
2024-05-09T08:30:48.563Z,635.00
2024-05-09T08:31:48.390Z,621.00
2024-05-09T08:32:48.541Z,624.00
2024-05-09T08:33:48.756Z,622.00
2024-05-09T08:34:48.425Z,615.00
2024-05-09T08:35:48.425Z,602.00
2024-05-09T08:36:48.502Z,614.00
2024-05-09T08:37:48.578Z,600.00
2024-05-09T08:38:48.545Z,600.00
2024-05-09T08:39:48.683Z,603.00
2024-05-09T08:40:48.776Z,604.00
2024-05-09T08:41:48.664Z,600.00
2024-05-09T08:42:48.792Z,603.00
2024-05-09T08:43:48.763Z,609.00
2024-05-09T08:44:48.846Z,602.00
2024-05-09T08:45:48.868Z,603.00
2024-05-09T08:46:48.880Z,614.00
2024-05-09T08:47:48.924Z,622.00
2024-05-09T08:48:49.063Z,616.00
2024-05-09T08:49:49.042Z,609.00
2024-05-09T08:50:49.164Z,600.00
2024-05-09T08:51:49.146Z,600.00
2024-05-09T08:52:49.192Z,600.00
2024-05-09T08:53:49.263Z,600.00
2024-05-09T08:54:49.338Z,600.00
2024-05-09T08:55:49.323Z,610.00
2024-05-09T08:56:49.376Z,615.00
2024-05-09T08:57:49.465Z,614.00
2024-05-09T08:58:49.571Z,639.00
2024-05-09T08:59:49.519Z,649.00
2024-05-09T09:00:49.996Z,641.00
2024-05-09T09:01:49.684Z,635.00
2024-05-09T09:02:49.754Z,643.00
2024-05-09T09:03:49.870Z,643.00
2024-05-09T09:04:50.136Z,640.00
2024-05-09T09:05:49.823Z,639.00
2024-05-09T09:06:49.896Z,634.00
2024-05-09T09:07:49.955Z,637.00
2024-05-09T09:08:49.948Z,640.00
2024-05-09T09:09:50.027Z,635.00
2024-05-09T09:10:50.092Z,615.00
2024-05-09T09:11:50.140Z,602.00
2024-05-09T09:12:50.197Z,605.00
2024-05-09T09:13:50.167Z,603.00
2024-05-09T09:14:50.174Z,600.00
2024-05-09T09:15:50.351Z,602.00
2024-05-09T09:16:50.273Z,600.00
2024-05-09T09:17:50.450Z,600.00
2024-05-09T09:18:50.588Z,597.00
2024-05-09T09:19:50.442Z,575.00
2024-05-09T09:20:50.497Z,566.00
2024-05-09T09:21:50.623Z,591.00
2024-05-09T09:22:50.567Z,601.00
2024-05-09T09:23:50.586Z,603.00
2024-05-09T09:24:50.653Z,617.00
2024-05-09T09:25:50.803Z,615.00
2024-05-09T09:26:50.721Z,621.00
2024-05-09T09:27:50.827Z,617.00
2024-05-09T09:28:50.855Z,600.00
2024-05-09T09:29:50.903Z,600.00
2024-05-09T09:30:51.080Z,602.00
2024-05-09T09:31:51.350Z,607.00
2024-05-09T09:32:51.073Z,609.00
2024-05-09T09:33:51.306Z,611.00
2024-05-09T09:34:51.127Z,623.00
2024-05-09T09:35:51.104Z,630.00
2024-05-09T09:36:51.226Z,637.00
2024-05-09T09:37:51.192Z,634.00
2024-05-09T09:38:51.263Z,630.00
2024-05-09T09:39:51.341Z,626.00
2024-05-09T09:40:51.485Z,621.00
2024-05-09T09:41:51.410Z,610.00
2024-05-09T09:42:51.564Z,608.00
2024-05-09T09:43:51.554Z,613.00
2024-05-09T09:45:01.824Z,645.00
2024-05-09T09:45:53.528Z,645.00
2024-05-09T09:46:51.635Z,650.00
2024-05-09T09:47:51.718Z,663.00
2024-05-09T09:48:51.788Z,700.00
2024-05-09T09:49:51.723Z,762.00
2024-05-09T09:50:51.740Z,772.00
2024-05-09T09:51:51.774Z,777.00
2024-05-09T09:52:51.734Z,781.00
2024-05-09T09:53:51.769Z,832.00
2024-05-09T09:54:51.938Z,850.00
2024-05-09T09:55:51.865Z,843.00
2024-05-09T09:56:51.946Z,831.00
2024-05-09T09:57:52.075Z,802.00
2024-05-09T09:58:52.008Z,794.00
2024-05-09T09:59:52.056Z,779.00
2024-05-09T10:00:52.212Z,763.00
2024-05-09T10:01:52.229Z,777.00
2024-05-09T10:02:52.249Z,789.00
2024-05-09T10:03:52.458Z,772.00
2024-05-09T10:04:52.412Z,785.00
2024-05-09T10:05:52.385Z,780.00
2024-05-09T10:06:52.368Z,765.00
2024-05-09T10:07:52.389Z,746.00
2024-05-09T10:08:52.446Z,723.00
2024-05-09T10:09:52.469Z,722.00
2024-05-09T10:10:52.778Z,711.00
2024-05-09T10:11:59.575Z,673.00
2024-05-09T10:12:53.603Z,674.00
2024-05-09T10:13:52.535Z,673.00
2024-05-09T10:14:52.564Z,675.00
2024-05-09T10:15:52.931Z,663.00
2024-05-09T10:16:52.560Z,659.00
2024-05-09T10:17:52.673Z,662.00
2024-05-09T10:18:52.825Z,654.00
2024-05-09T10:19:52.723Z,655.00
2024-05-09T10:20:52.558Z,648.00
2024-05-09T10:21:52.631Z,645.00
2024-05-09T10:22:52.540Z,648.00
2024-05-09T10:23:52.581Z,638.00
2024-05-09T10:24:52.627Z,630.00
2024-05-09T10:25:52.575Z,635.00
2024-05-09T10:26:52.554Z,637.00
2024-05-09T10:27:52.566Z,636.00
2024-05-09T10:28:52.591Z,628.00
2024-05-09T10:29:52.580Z,622.00
2024-05-09T10:30:52.639Z,617.00
2024-05-09T10:31:52.658Z,614.00
2024-05-09T10:32:52.753Z,620.00
2024-05-09T10:33:53.320Z,630.00
2024-05-09T10:34:52.758Z,642.00
2024-05-09T10:35:52.753Z,634.00
2024-05-09T10:36:52.884Z,639.00
2024-05-09T10:37:52.951Z,641.00
2024-05-09T10:38:52.979Z,642.00
2024-05-09T10:39:53.106Z,646.00
2024-05-09T10:40:53.076Z,651.00
2024-05-09T10:41:53.118Z,653.00
2024-05-09T10:42:53.186Z,649.00
2024-05-09T10:43:53.238Z,640.00
2024-05-09T10:44:53.264Z,627.00
2024-05-09T10:45:53.486Z,629.00
2024-05-09T10:46:53.425Z,637.00
2024-05-09T10:47:53.552Z,643.00
2024-05-09T10:48:53.666Z,651.00
2024-05-09T10:49:53.742Z,645.00
2024-05-09T10:50:53.632Z,642.00
2024-05-09T10:51:53.746Z,639.00
2024-05-09T10:52:53.744Z,639.00
2024-05-09T10:53:53.791Z,628.00
2024-05-09T10:54:53.850Z,608.00
2024-05-09T10:55:53.868Z,568.00
2024-05-09T10:56:53.901Z,588.00
2024-05-09T10:57:53.986Z,604.00
2024-05-09T10:58:53.942Z,611.00
2024-05-09T10:59:53.970Z,624.00
2024-05-09T11:00:54.163Z,622.00
2024-05-09T11:01:54.230Z,618.00
2024-05-09T11:02:54.188Z,617.00
2024-05-09T11:03:54.411Z,627.00
2024-05-09T11:04:54.283Z,632.00
2024-05-09T11:05:54.338Z,649.00
2024-05-09T11:06:54.376Z,649.00
2024-05-09T11:07:54.354Z,649.00
2024-05-09T11:08:54.388Z,641.00
2024-05-09T11:09:54.452Z,643.00
2024-05-09T11:10:54.546Z,645.00
2024-05-09T11:11:54.554Z,647.00
2024-05-09T11:12:54.533Z,627.00
2024-05-09T11:13:54.528Z,600.00
2024-05-09T11:14:54.546Z,601.00
2024-05-09T11:15:54.782Z,603.00
2024-05-09T11:16:54.604Z,602.00
2024-05-09T11:17:54.787Z,609.00
2024-05-09T11:18:55.110Z,612.00
2024-05-09T11:19:54.812Z,630.00
2024-05-09T11:20:54.787Z,637.00
2024-05-09T11:21:54.853Z,624.00
2024-05-09T11:23:11.903Z,600.00
2024-05-09T11:24:11.971Z,600.00
2024-05-09T11:25:12.013Z,600.00
2024-05-09T11:26:11.888Z,600.00
2024-05-09T11:27:11.947Z,600.00
2024-05-09T11:28:11.997Z,600.00
2024-05-09T11:29:12.244Z,606.00
2024-05-09T11:30:20.828Z,599.00
2024-05-09T11:31:12.951Z,586.00
2024-05-09T11:32:11.998Z,576.00
2024-05-09T11:33:11.982Z,563.00
2024-05-09T11:34:11.969Z,536.00
2024-05-09T11:35:11.915Z,537.00
2024-05-09T11:36:11.915Z,597.00
2024-05-09T11:37:12.041Z,605.00
2024-05-09T11:38:11.943Z,608.00
2024-05-09T11:39:11.953Z,602.00
2024-05-09T11:40:20.733Z,610.00
2024-05-09T11:41:12.950Z,608.00
2024-05-09T11:42:11.971Z,610.00
2024-05-09T11:43:12.132Z,614.00
2024-05-09T11:44:11.937Z,623.00
2024-05-09T11:45:11.956Z,640.00
2024-05-09T11:46:12.119Z,646.00
2024-05-09T11:47:12.006Z,645.00
2024-05-09T11:48:12.046Z,622.00
2024-05-09T11:49:12.195Z,617.00
2024-05-09T11:50:19.139Z,600.00
2024-05-09T11:51:12.974Z,598.00
2024-05-09T11:52:12.034Z,601.00
2024-05-09T11:53:11.979Z,609.00
2024-05-09T11:54:12.006Z,613.00
2024-05-09T11:55:12.014Z,592.00
2024-05-09T11:56:12.023Z,615.00
2024-05-09T11:57:11.980Z,631.00
2024-05-09T11:58:12.060Z,657.00
2024-05-09T11:59:11.993Z,656.00
2024-05-09T12:00:14.934Z,631.00
2024-05-09T12:01:13.075Z,632.00
2024-05-09T12:02:12.143Z,637.00
2024-05-09T12:03:12.038Z,650.00
2024-05-09T12:04:12.258Z,676.00
2024-05-09T12:05:12.122Z,680.00
2024-05-09T12:06:12.053Z,662.00
2024-05-09T12:07:13.130Z,686.00
2024-05-09T12:08:12.014Z,767.00
2024-05-09T12:09:12.004Z,774.00
2024-05-09T12:10:16.794Z,763.00
2024-05-09T12:11:13.142Z,764.00
2024-05-09T12:12:12.014Z,774.00
2024-05-09T12:13:12.057Z,795.00
2024-05-09T12:14:12.050Z,826.00
2024-05-09T12:15:12.036Z,888.00
2024-05-09T12:16:12.077Z,913.00
2024-05-09T12:17:12.085Z,906.00
2024-05-09T12:18:12.085Z,837.00
2024-05-09T12:19:12.104Z,747.00
2024-05-09T12:20:20.943Z,699.00
2024-05-09T12:21:13.037Z,700.00
2024-05-09T12:22:12.136Z,707.00
2024-05-09T12:23:12.099Z,739.00
2024-05-09T12:24:14.438Z,821.00
2024-05-09T12:25:12.094Z,910.00
2024-05-09T12:26:12.057Z,896.00
2024-05-09T12:27:12.104Z,875.00
2024-05-09T12:28:12.135Z,878.00
2024-05-09T12:29:12.066Z,888.00
2024-05-09T12:30:20.741Z,902.00
2024-05-09T12:31:13.090Z,904.00
2024-05-09T12:32:12.088Z,917.00